createdAt,value
2018-09-28T00:00:43.179Z,77.95
2018-09-28T00:01:33.878Z,77.95
2018-09-28T00:02:46.089Z,78.06
2018-09-28T00:03:44.373Z,77.23
2018-09-28T00:04:33.840Z,78.88
2018-09-28T00:05:43.243Z,78.67
2018-09-28T00:06:33.804Z,77.95
2018-09-28T00:08:47.104Z,77.89
2018-09-28T00:09:58.932Z,78.61
2018-09-28T00:10:57.653Z,80.56
2018-09-28T00:11:47.383Z,80.46
2018-09-28T00:12:56.810Z,81.32
2018-09-28T00:13:47.167Z,79.43
2018-09-28T00:18:13.472Z,78.85
2018-09-28T00:19:22.777Z,79.57
2018-09-28T00:20:23.298Z,78.44
2018-09-28T00:21:13.394Z,80.49
2018-09-28T00:22:23.906Z,79.88
2018-09-28T00:23:13.465Z,78.33
2018-09-28T00:24:22.745Z,80.02
2018-09-28T00:25:22.801Z,79.71
2018-09-28T00:26:13.332Z,80.70
2018-09-28T00:27:23.250Z,80.43
2018-09-28T00:28:25.352Z,81.76
2018-09-28T00:29:13.972Z,80.74
2018-09-28T00:30:22.170Z,80.53
2018-09-28T00:31:13.227Z,80.43
2018-09-28T00:32:14.555Z,80.88
2018-09-28T00:33:23.153Z,81.25
2018-09-28T00:35:25.375Z,80.47
2018-09-28T00:36:25.274Z,81.09
2018-09-28T00:37:33.906Z,81.19
2018-09-28T00:38:25.250Z,80.88
2018-09-28T00:39:36.146Z,81.81
2018-09-28T00:41:37.948Z,81.19
2018-09-28T00:42:48.756Z,81.81
2018-09-28T00:43:37.843Z,82.21
2018-09-28T00:44:46.425Z,80.36
2018-09-28T00:46:51.080Z,81.74
2018-09-28T00:47:51.037Z,82.05
2018-09-28T00:49:02.957Z,82.77
2018-09-28T00:49:51.030Z,83.49
2018-09-28T00:50:50.963Z,81.70
2018-09-28T00:52:00.508Z,81.84
2018-09-28T00:52:59.540Z,82.67
2018-09-28T00:53:59.563Z,82.05
2018-09-28T00:56:03.079Z,82.67
2018-09-28T00:59:34.530Z,82.67
2018-09-28T01:01:46.949Z,82.56
2018-09-28T01:02:56.328Z,80.81
2018-09-28T01:03:46.927Z,81.53
2018-09-28T01:04:46.898Z,81.33
2018-09-28T01:05:46.882Z,81.39
2018-09-28T01:06:47.017Z,80.26
2018-09-28T01:07:56.298Z,79.64
2018-09-28T01:08:46.954Z,78.37
2018-09-28T01:09:57.484Z,78.64
2018-09-28T01:10:46.912Z,78.13
2018-09-28T01:11:46.669Z,78.75
2018-09-28T01:12:46.638Z,78.23
2018-09-28T01:13:46.635Z,78.50
2018-09-28T01:14:55.429Z,78.20
2018-09-28T01:15:46.757Z,79.57
2018-09-28T01:16:46.705Z,79.22
2018-09-28T01:17:46.718Z,78.09
2018-09-28T01:18:46.585Z,78.71
2018-09-28T01:19:59.088Z,77.68
2018-09-28T01:20:46.690Z,78.09
2018-09-28T01:21:46.603Z,78.61
2018-09-28T01:22:46.635Z,78.71
2018-09-28T01:23:46.678Z,78.30
2018-09-28T01:26:27.611Z,79.57
2018-09-28T01:28:10.053Z,79.84
2018-09-28T01:29:10.129Z,80.80
2018-09-28T01:30:09.996Z,79.47
2018-09-28T01:31:18.678Z,79.26
2018-09-28T01:32:10.053Z,79.26
2018-09-28T01:33:19.379Z,80.19
2018-09-28T01:35:24.721Z,79.67
2018-09-28T01:36:24.951Z,80.08
2018-09-28T01:37:36.289Z,79.98
2018-09-28T01:38:34.635Z,80.39
2018-09-28T01:39:24.639Z,80.19
2018-09-28T01:40:35.176Z,79.16
2018-09-28T01:41:34.053Z,80.39
2018-09-28T01:42:35.361Z,80.70
2018-09-28T01:44:39.235Z,80.49
2018-09-28T01:45:48.433Z,80.70
2018-09-28T01:46:39.049Z,80.19
2018-09-28T01:47:48.433Z,80.39
2018-09-28T01:48:39.020Z,80.60
2018-09-28T01:49:39.136Z,80.60
2018-09-28T01:50:50.434Z,80.49
2018-09-28T01:51:47.825Z,80.80
2018-09-28T01:52:38.894Z,80.08
2018-09-28T01:53:49.596Z,80.49
2018-09-28T01:54:48.449Z,80.19
2018-09-28T01:55:48.334Z,79.88
2018-09-28T01:56:49.381Z,79.16
2018-09-28T01:57:49.863Z,79.36
2018-09-28T01:58:49.851Z,79.88
2018-09-28T01:59:47.649Z,79.67
2018-09-28T02:00:38.908Z,80.56
2018-09-28T02:01:50.894Z,78.81
2018-09-28T02:02:38.819Z,79.53
2018-09-28T02:03:51.173Z,78.50
2018-09-28T02:05:53.148Z,79.33
2018-09-28T02:08:04.678Z,80.56
2018-09-28T02:09:13.109Z,80.25
2018-09-28T02:10:04.401Z,80.21
2018-09-28T02:11:14.796Z,80.87
2018-09-28T02:13:36.229Z,80.46
2018-09-28T02:14:36.208Z,80.97
2018-09-28T02:15:36.747Z,80.05
2018-09-28T02:16:47.702Z,80.15
2018-09-28T02:18:47.493Z,80.05
2018-09-28T02:19:57.614Z,80.25
2018-09-28T02:20:47.426Z,80.15
2018-09-28T02:21:56.771Z,80.97
2018-09-28T02:23:58.626Z,80.46
2018-09-28T02:28:01.865Z,81.73
2018-09-28T02:28:34.025Z,81.83
2018-09-28T02:29:25.494Z,81.42
2018-09-28T02:30:36.491Z,81.73
2018-09-28T02:31:35.050Z,81.32
2018-09-28T02:32:34.747Z,80.60
2018-09-28T02:34:39.335Z,81.21
2018-09-28T02:35:39.291Z,81.73
2018-09-28T02:36:39.228Z,80.91
2018-09-28T02:37:47.746Z,81.67
2018-09-28T02:40:08.717Z,81.87
2018-09-28T02:40:50.501Z,81.56
2018-09-28T02:41:51.106Z,81.56
2018-09-28T02:43:00.451Z,81.76
2018-09-28T02:45:03.006Z,82.48
2018-09-28T02:46:02.520Z,83.51
2018-09-28T02:47:13.153Z,83.20
2018-09-28T02:48:02.533Z,83.86
2018-09-28T02:49:11.996Z,82.69
2018-09-28T02:50:02.556Z,82.79
2018-09-28T02:51:15.461Z,82.83
2018-09-28T02:52:02.502Z,82.90
2018-09-28T02:53:02.370Z,82.93
2018-09-28T02:54:11.805Z,83.04
2018-09-28T02:55:11.884Z,83.55
2018-09-28T02:56:02.479Z,83.14
2018-09-28T02:57:02.555Z,83.14
2018-09-28T02:58:12.865Z,83.86
2018-09-28T03:00:16.602Z,83.59
2018-09-28T03:01:26.178Z,83.59
2018-09-28T03:02:16.526Z,83.76
2018-09-28T03:03:26.013Z,83.28
2018-09-28T03:04:25.743Z,83.39
2018-09-28T03:06:29.546Z,84.00
2018-09-28T03:07:37.941Z,84.62
2018-09-28T03:08:29.562Z,84.52
2018-09-28T03:09:39.054Z,84.52
2018-09-28T03:11:40.627Z,84.72
2018-09-28T03:12:40.570Z,84.00
2018-09-28T03:13:49.922Z,84.83
2018-09-28T03:14:49.657Z,84.87
2018-09-28T03:15:52.963Z,85.07
2018-09-28T03:16:40.547Z,84.45
2018-09-28T03:17:50.280Z,85.07
2018-09-28T03:18:52.525Z,84.66
2018-09-28T03:19:40.525Z,84.87
2018-09-28T03:20:49.995Z,84.45
2018-09-28T03:21:51.440Z,84.45
2018-09-28T03:22:49.019Z,84.87
2018-09-28T03:25:06.001Z,84.66
2018-09-28T03:26:02.191Z,85.07
2018-09-28T03:26:51.750Z,84.77
2018-09-28T03:28:02.249Z,84.45
2018-09-28T03:28:51.761Z,84.25
2018-09-28T03:30:01.112Z,84.56
2018-09-28T03:32:03.758Z,84.66
2018-09-28T03:33:14.442Z,84.14
2018-09-28T03:34:14.373Z,85.17
2018-09-28T03:35:14.585Z,85.01
2018-09-28T03:36:14.381Z,85.89
2018-09-28T03:37:15.840Z,85.73
2018-09-28T03:38:14.583Z,85.59
2018-09-28T03:39:03.645Z,85.38
2018-09-28T03:40:03.589Z,84.56
2018-09-28T03:42:15.953Z,86.00
2018-09-28T03:43:26.866Z,84.59
2018-09-28T03:44:25.563Z,85.22
2018-09-28T03:45:27.352Z,85.11
2018-09-28T03:46:15.855Z,85.42
2018-09-28T03:48:29.026Z,85.83
2018-09-28T03:49:40.641Z,85.22
2018-09-28T03:50:39.273Z,84.49
2018-09-28T03:52:41.316Z,85.11
2018-09-28T03:53:50.694Z,85.73
2018-09-28T03:54:41.217Z,85.63
2018-09-28T03:55:41.262Z,85.52
2018-09-28T03:56:50.620Z,85.73
2018-09-28T03:57:49.748Z,85.73
2018-09-28T03:59:53.910Z,84.94
2018-09-28T04:00:53.870Z,84.64
2018-09-28T04:02:05.271Z,84.64
2018-09-28T04:02:54.047Z,84.94
2018-09-28T04:04:05.018Z,85.77
2018-09-28T04:04:53.843Z,85.25
2018-09-28T04:05:53.943Z,85.67
2018-09-28T04:07:05.083Z,85.67
2018-09-28T04:07:53.810Z,85.57
2018-09-28T04:08:56.571Z,85.05
2018-09-28T04:09:53.637Z,84.43
2018-09-28T04:11:04.406Z,84.57
2018-09-28T04:12:04.339Z,84.88
2018-09-28T04:13:04.176Z,85.71
2018-09-28T04:13:53.781Z,85.60
2018-09-28T04:14:53.689Z,85.71
2018-09-28T04:16:03.208Z,85.81
2018-09-28T04:16:53.780Z,85.91
2018-09-28T04:17:53.743Z,85.91
2018-09-28T04:19:03.270Z,86.02
2018-09-28T04:20:06.017Z,85.81
2018-09-28T04:21:03.070Z,85.30
2018-09-28T04:21:53.858Z,85.50
2018-09-28T04:22:53.658Z,85.30
2018-09-28T04:23:54.867Z,85.50
2018-09-28T04:25:14.507Z,85.71
2018-09-28T04:25:53.615Z,85.39
2018-09-28T04:26:53.568Z,86.16
2018-09-28T04:28:02.195Z,86.05
2018-09-28T04:28:53.725Z,85.85
2018-09-28T04:29:53.550Z,85.85
2018-09-28T04:30:54.388Z,85.95
2018-09-28T04:31:53.677Z,86.36
2018-09-28T04:32:54.836Z,85.54
2018-09-28T04:33:53.381Z,85.44
2018-09-28T04:34:53.394Z,85.33
2018-09-28T04:35:54.287Z,85.64
2018-09-28T04:37:04.743Z,86.26
2018-09-28T04:37:53.476Z,86.68
2018-09-28T04:38:53.449Z,86.68
2018-09-28T04:39:54.878Z,86.36
2018-09-28T04:40:53.458Z,86.47
2018-09-28T04:41:55.839Z,86.36
2018-09-28T04:43:03.183Z,86.47
2018-09-28T04:43:53.431Z,86.68
2018-09-28T04:44:53.350Z,86.68
2018-09-28T04:45:53.378Z,86.78
2018-09-28T04:47:05.761Z,86.47
2018-09-28T04:47:53.449Z,86.26
2018-09-28T04:48:53.373Z,86.47
2018-09-28T04:50:05.299Z,86.57
2018-09-28T04:50:53.333Z,86.05
2018-09-28T04:51:53.265Z,85.58
2018-09-28T04:52:53.309Z,86.26
2018-09-28T04:53:53.226Z,86.71
2018-09-28T04:54:53.152Z,86.57
2018-09-28T04:55:53.153Z,87.44
2018-09-28T04:56:53.158Z,87.02
2018-09-28T04:57:53.253Z,87.19
2018-09-28T04:58:53.132Z,86.98
2018-09-28T04:59:53.134Z,87.13
2018-09-28T05:00:53.067Z,86.61
2018-09-28T05:01:53.065Z,86.71
2018-09-28T05:02:53.075Z,86.61
2018-09-28T05:05:58.878Z,88.12
2018-09-28T05:08:31.062Z,87.19
2018-09-28T05:09:19.516Z,86.68
2018-09-28T05:10:21.222Z,87.40
2018-09-28T05:11:30.335Z,86.92
2018-09-28T05:12:20.304Z,86.47
2018-09-28T05:14:37.501Z,87.71
2018-09-28T05:15:37.408Z,87.50
2018-09-28T05:16:37.656Z,88.22
2018-09-28T05:18:55.531Z,87.92
2018-09-28T05:19:55.656Z,87.77
2018-09-28T05:20:56.195Z,87.98
2018-09-28T05:21:55.415Z,87.98
2018-09-28T05:23:04.065Z,87.98
2018-09-28T05:23:55.506Z,87.87
2018-09-28T05:26:01.553Z,87.66
2018-09-28T05:27:15.750Z,87.77
2018-09-28T05:29:20.484Z,87.26
2018-09-28T05:30:33.440Z,87.26
2018-09-28T05:31:21.128Z,87.87
2018-09-28T05:32:48.621Z,91.17
2018-09-28T05:37:15.887Z,90.20
2018-09-28T05:39:40.076Z,89.95
2018-09-28T05:42:07.865Z,87.38
2018-09-28T05:43:25.093Z,88.14
2018-09-28T05:44:30.848Z,89.54
2018-09-28T05:45:08.306Z,90.47
2018-09-28T05:46:08.136Z,88.78
2018-09-28T05:47:35.687Z,88.26
2018-09-28T05:48:08.682Z,89.56
2018-09-28T05:49:17.693Z,89.77
2018-09-28T05:51:26.066Z,85.41
2018-09-28T05:53:43.713Z,83.68
2018-09-28T05:56:31.231Z,82.00
2018-09-28T05:57:27.845Z,81.55
2018-09-28T05:58:16.895Z,78.88
2018-09-28T05:59:25.978Z,77.92
2018-09-28T06:01:28.980Z,76.75
2018-09-28T06:02:41.777Z,75.83
2018-09-28T06:04:55.138Z,75.28
2018-09-28T06:07:07.740Z,75.90
2018-09-28T06:08:07.631Z,76.41
2018-09-28T06:09:07.714Z,76.41
2018-09-28T06:12:29.807Z,74.22
2018-09-28T06:13:30.091Z,73.71
2018-09-28T06:14:29.769Z,74.43
2018-09-28T06:15:29.739Z,72.86
2018-09-28T06:16:29.764Z,72.96
2018-09-28T06:17:29.591Z,72.14
2018-09-28T06:18:29.598Z,72.61
2018-09-28T06:19:29.516Z,72.52
2018-09-28T06:20:30.463Z,71.80
2018-09-28T06:21:30.489Z,72.00
2018-09-28T06:22:29.465Z,71.25
2018-09-28T06:23:29.548Z,71.59
2018-09-28T06:24:29.488Z,71.49
2018-09-28T06:25:29.479Z,71.90
2018-09-28T06:26:29.530Z,72.38
2018-09-28T06:27:29.443Z,72.99
2018-09-28T06:28:29.419Z,72.92
2018-09-28T06:29:29.410Z,72.31
2018-09-28T06:30:29.387Z,72.20
2018-09-28T06:31:29.370Z,72.20
2018-09-28T06:32:29.401Z,72.28
2018-09-28T06:33:29.364Z,71.59
2018-09-28T06:34:29.375Z,70.94
2018-09-28T06:35:30.030Z,70.94
2018-09-28T06:36:29.332Z,71.36
2018-09-28T06:37:29.323Z,71.36
2018-09-28T06:38:29.328Z,70.12
2018-09-28T06:39:29.335Z,70.71
2018-09-28T06:40:29.968Z,71.01
2018-09-28T06:41:29.288Z,71.42
2018-09-28T06:42:29.317Z,71.62
2018-09-28T06:43:30.330Z,71.01
2018-09-28T06:44:29.267Z,68.55
2018-09-28T06:45:29.250Z,69.79
2018-09-28T06:46:29.265Z,69.65
2018-09-28T06:47:29.994Z,69.55
2018-09-28T06:48:29.232Z,70.16
2018-09-28T06:49:29.179Z,71.53
2018-09-28T06:50:29.214Z,69.75
2018-09-28T06:51:29.299Z,69.04
2018-09-28T06:52:29.976Z,67.91
2018-09-28T06:53:30.040Z,68.63
2018-09-28T06:54:29.123Z,70.26
2018-09-28T06:55:29.109Z,68.84
2018-09-28T06:56:29.130Z,68.22
2018-09-28T06:57:29.121Z,67.60
2018-09-28T06:58:29.525Z,67.07
2018-09-28T06:59:29.093Z,67.98
2018-09-28T07:00:29.131Z,68.39
2018-09-28T07:01:29.035Z,66.66
2018-09-28T07:02:29.092Z,65.80
2018-09-28T07:03:29.533Z,66.72
2018-09-28T07:04:29.032Z,67.34
2018-09-28T07:05:28.997Z,65.19
2018-09-28T07:06:28.989Z,65.37
2018-09-28T07:07:29.071Z,65.19
2018-09-28T07:08:30.050Z,65.06
2018-09-28T07:09:30.034Z,65.77
2018-09-28T07:11:40.876Z,66.59
2018-09-28T07:12:40.506Z,65.77
2018-09-28T07:13:40.531Z,63.83
2018-09-28T07:14:40.472Z,65.37
2018-09-28T07:15:40.408Z,64.83
2018-09-28T07:16:40.384Z,65.54
2018-09-28T07:17:40.346Z,66.15
2018-09-28T07:18:40.357Z,65.74
2018-09-28T07:19:40.320Z,66.66
2018-09-28T07:20:40.278Z,64.83
2018-09-28T07:21:40.299Z,64.62
2018-09-28T07:22:40.942Z,64.52
2018-09-28T07:23:40.283Z,64.90
2018-09-28T07:24:40.227Z,65.71
2018-09-28T07:25:40.286Z,65.54
2018-09-28T07:26:40.196Z,62.96
2018-09-28T07:27:40.201Z,62.76
2018-09-28T07:28:40.889Z,62.96
2018-09-28T07:29:40.237Z,64.28
2018-09-28T07:30:40.452Z,63.16
2018-09-28T07:31:40.134Z,63.44
2018-09-28T07:32:40.897Z,64.15
2018-09-28T07:33:40.125Z,63.13
2018-09-28T07:34:40.092Z,62.73
2018-09-28T07:35:40.928Z,63.34
2018-09-28T07:36:41.037Z,62.52
2018-09-28T07:37:40.107Z,62.52
2018-09-28T07:38:41.898Z,62.70
2018-09-28T07:39:40.084Z,61.98
2018-09-28T07:40:40.167Z,61.16
2018-09-28T07:41:41.056Z,62.90
2018-09-28T07:42:40.055Z,62.80
2018-09-28T07:43:50.937Z,62.80
2018-09-28T07:44:40.205Z,63.41
2018-09-28T07:45:40.239Z,62.49
2018-09-28T07:46:40.058Z,61.16
2018-09-28T07:47:40.168Z,62.59
2018-09-28T07:48:40.094Z,60.76
2018-09-28T07:49:41.966Z,62.08
2018-09-28T07:50:39.995Z,61.04
2018-09-28T07:51:41.426Z,61.14
2018-09-28T07:52:40.418Z,61.95
2018-09-28T07:53:49.925Z,59.81
2018-09-28T07:54:39.993Z,60.93
2018-09-28T07:55:40.026Z,60.83
2018-09-28T07:56:40.185Z,59.61
2018-09-28T07:57:42.489Z,61.44
2018-09-28T07:58:39.856Z,60.83
2018-09-28T07:59:39.844Z,60.80
2018-09-28T08:00:39.817Z,61.52
2018-09-28T08:01:41.456Z,61.82
2018-09-28T08:02:50.737Z,63.76
2018-09-28T08:03:39.897Z,61.44
2018-09-28T08:04:39.892Z,61.00
2018-09-28T08:05:39.885Z,61.72
2018-09-28T08:06:39.904Z,61.93
2018-09-28T08:07:57.472Z,60.19
2018-09-28T08:08:39.744Z,59.99
2018-09-28T08:09:50.683Z,60.70
2018-09-28T08:10:39.824Z,58.97
2018-09-28T08:11:39.795Z,58.94
2018-09-28T08:12:39.795Z,59.38
2018-09-28T08:13:51.608Z,60.06
2018-09-28T08:14:39.965Z,60.27
2018-09-28T08:15:39.882Z,61.38
2018-09-28T08:16:52.509Z,59.45
2018-09-28T08:17:39.817Z,60.16
2018-09-28T08:18:50.122Z,60.27
2018-09-28T08:19:39.797Z,60.77
2018-09-28T08:20:39.740Z,61.08
2018-09-28T08:21:40.669Z,60.57
2018-09-28T08:22:39.750Z,60.68
2018-09-28T08:23:49.213Z,61.69
2018-09-28T08:24:39.753Z,61.69
2018-09-28T08:26:00.641Z,60.34
2018-09-28T08:26:39.696Z,60.64
2018-09-28T08:27:39.556Z,60.77
2018-09-28T08:28:49.016Z,59.45
2018-09-28T08:29:39.786Z,61.15
2018-09-28T08:30:39.701Z,61.29
2018-09-28T08:31:39.617Z,60.34
2018-09-28T08:32:39.691Z,60.75
2018-09-28T08:33:48.160Z,61.76
2018-09-28T08:34:39.636Z,61.76
2018-09-28T08:35:48.992Z,61.76
2018-09-28T08:36:48.234Z,61.76
2018-09-28T08:37:39.624Z,61.87
2018-09-28T08:38:39.530Z,61.46
2018-09-28T08:39:40.282Z,62.55
2018-09-28T08:40:39.436Z,62.48
2018-09-28T08:41:49.200Z,60.03
2018-09-28T08:42:39.632Z,60.14
2018-09-28T08:43:39.456Z,60.85
2018-09-28T08:44:39.426Z,61.15
2018-09-28T08:45:50.648Z,60.44
2018-09-28T08:46:39.521Z,60.85
2018-09-28T08:47:39.350Z,61.15
2018-09-28T08:48:39.421Z,62.68
2018-09-28T08:49:41.288Z,62.55
2018-09-28T08:50:49.372Z,62.88
2018-09-28T08:51:39.386Z,61.94
2018-09-28T08:52:39.315Z,62.75
2018-09-28T08:53:39.289Z,61.83
2018-09-28T08:54:39.377Z,63.16
2018-09-28T08:55:40.866Z,64.28
2018-09-28T08:56:49.965Z,62.65
2018-09-28T08:57:39.409Z,62.85
2018-09-28T08:58:49.067Z,61.83
2018-09-28T09:00:51.829Z,61.74
2018-09-28T09:03:04.456Z,63.02
2018-09-28T09:04:12.980Z,62.52
2018-09-28T09:05:04.473Z,62.35
2018-09-28T09:08:46.599Z,62.41
2018-09-28T09:09:59.327Z,61.71
2018-09-28T09:10:46.590Z,62.21
2018-09-28T09:11:46.513Z,61.71
2018-09-28T09:12:46.455Z,61.81
2018-09-28T09:13:48.204Z,62.32
2018-09-28T09:14:46.349Z,62.24
2018-09-28T09:15:54.996Z,63.46
2018-09-28T09:16:46.411Z,63.64
2018-09-28T09:17:55.041Z,63.94
2018-09-28T09:18:46.471Z,63.67
2018-09-28T09:19:56.197Z,63.54
2018-09-28T09:20:46.379Z,64.25
2018-09-28T09:21:46.335Z,64.35
2018-09-28T09:22:57.777Z,64.32
2018-09-28T09:23:46.253Z,64.73
2018-09-28T09:24:46.193Z,64.83
2018-09-28T09:25:46.184Z,66.76
2018-09-28T09:26:47.713Z,65.74
2018-09-28T09:27:46.162Z,67.16
2018-09-28T09:28:46.137Z,67.16
2018-09-28T09:29:46.153Z,66.05
2018-09-28T09:30:46.139Z,64.83
2018-09-28T09:31:46.107Z,65.94
2018-09-28T09:32:57.159Z,66.76
2018-09-28T09:33:46.243Z,66.55
2018-09-28T09:34:55.645Z,65.44
2018-09-28T09:35:46.203Z,66.05
2018-09-28T09:36:46.173Z,66.93
2018-09-28T09:37:46.144Z,66.52
2018-09-28T09:38:46.281Z,66.83
2018-09-28T09:39:50.843Z,66.32
2018-09-28T09:40:57.986Z,66.86
2018-09-28T09:41:46.151Z,66.83
2018-09-28T09:42:46.227Z,67.64
2018-09-28T09:43:46.217Z,66.80
2018-09-28T09:44:46.866Z,67.03
2018-09-28T09:45:55.040Z,66.02
2018-09-28T09:46:46.232Z,66.72
2018-09-28T09:47:55.466Z,66.83
2018-09-28T09:48:56.029Z,67.24
2018-09-28T09:49:46.054Z,67.03
2018-09-28T09:50:45.999Z,67.74
2018-09-28T09:51:47.512Z,66.83
2018-09-28T09:52:56.034Z,67.24
2018-09-28T09:53:46.007Z,67.44
2018-09-28T09:54:46.064Z,68.66
2018-09-28T09:55:46.539Z,68.76
2018-09-28T09:56:54.537Z,68.15
2018-09-28T09:57:45.993Z,68.25
2018-09-28T09:58:46.013Z,68.86
2018-09-28T09:59:46.545Z,66.83
2018-09-28T10:00:46.015Z,66.93
2018-09-28T10:01:56.658Z,67.84
2018-09-28T10:03:58.218Z,68.32
2018-09-28T10:05:07.955Z,68.15
2018-09-28T10:05:58.166Z,68.86
2018-09-28T10:06:58.869Z,68.05
2018-09-28T10:07:58.050Z,68.79
2018-09-28T10:09:00.399Z,67.54
2018-09-28T10:10:07.522Z,67.54
2018-09-28T10:10:58.319Z,68.28
2018-09-28T10:12:07.510Z,69.57
2018-09-28T10:12:58.048Z,68.73
2018-09-28T10:13:58.046Z,69.13
2018-09-28T10:14:57.984Z,68.83
2018-09-28T10:15:58.032Z,68.83
2018-09-28T10:16:57.970Z,67.58
2018-09-28T10:18:06.580Z,68.79
2018-09-28T10:18:58.026Z,67.68
2018-09-28T10:19:58.013Z,67.78
2018-09-28T10:20:57.908Z,67.68
2018-09-28T10:21:58.032Z,67.68
2018-09-28T10:22:58.819Z,67.38
2018-09-28T10:24:07.370Z,67.27
2018-09-28T10:24:58.057Z,67.07
2018-09-28T10:27:09.148Z,67.47
2018-09-28T10:28:09.164Z,68.70
2018-09-28T10:29:10.784Z,67.95
2018-09-28T10:30:09.171Z,67.44
2018-09-28T10:31:08.993Z,66.77
2018-09-28T10:32:08.945Z,67.78
2018-09-28T10:33:09.733Z,68.22
2018-09-28T10:34:08.963Z,68.52
2018-09-28T10:35:09.719Z,69.13
2018-09-28T10:36:09.742Z,69.57
2018-09-28T10:37:08.935Z,69.57
2018-09-28T10:38:09.753Z,69.78
2018-09-28T10:39:08.951Z,70.08
2018-09-28T10:40:19.945Z,70.79
2018-09-28T10:41:09.265Z,70.89
2018-09-28T10:42:08.996Z,70.86
2018-09-28T10:43:08.997Z,70.86
2018-09-28T10:44:09.063Z,69.84
2018-09-28T10:45:10.805Z,70.45
2018-09-28T10:46:08.794Z,71.26
2018-09-28T10:47:10.771Z,70.52
2018-09-28T10:48:08.785Z,71.94
2018-09-28T10:49:08.742Z,71.03
2018-09-28T10:50:08.775Z,69.98
2018-09-28T10:51:08.749Z,69.88
2018-09-28T10:52:08.991Z,70.15
2018-09-28T10:53:08.852Z,68.93
2018-09-28T10:54:08.706Z,70.15
2018-09-28T10:55:10.281Z,68.83
2018-09-28T10:56:08.684Z,68.63
2018-09-28T10:57:08.717Z,68.63
2018-09-28T10:58:09.789Z,69.47
2018-09-28T10:59:08.643Z,69.54
2018-09-28T11:00:08.651Z,69.07
2018-09-28T11:01:17.344Z,69.91
2018-09-28T11:02:08.727Z,69.71
2018-09-28T11:03:08.804Z,70.83
2018-09-28T11:04:09.870Z,70.04
2018-09-28T11:05:08.813Z,70.96
2018-09-28T11:06:18.220Z,71.80
2018-09-28T11:07:08.692Z,71.80
2018-09-28T11:08:08.638Z,73.33
2018-09-28T11:09:08.654Z,71.67
2018-09-28T11:10:17.299Z,71.64
2018-09-28T11:11:08.712Z,70.72
2018-09-28T11:12:08.603Z,71.94
2018-09-28T11:13:08.531Z,70.08
2018-09-28T11:14:08.607Z,70.08
2018-09-28T11:15:12.310Z,69.34
2018-09-28T11:16:08.533Z,69.44
2018-09-28T11:17:09.327Z,69.84
2018-09-28T11:18:08.410Z,69.92
2018-09-28T11:19:08.407Z,69.10
2018-09-28T11:20:08.437Z,71.13
2018-09-28T11:21:08.402Z,69.31
2018-09-28T11:22:09.329Z,69.61
2018-09-28T11:23:09.303Z,69.31
2018-09-28T11:24:08.402Z,68.60
2018-09-28T11:25:09.318Z,68.93
2018-09-28T11:26:08.376Z,69.03
2018-09-28T11:27:08.319Z,70.18
2018-09-28T11:28:09.806Z,69.57
2018-09-28T11:29:09.301Z,70.21
2018-09-28T11:30:18.171Z,71.64
2018-09-28T11:31:08.488Z,71.94
2018-09-28T11:32:08.389Z,71.94
2018-09-28T11:33:08.396Z,71.91
2018-09-28T11:34:08.423Z,71.64
2018-09-28T11:35:08.250Z,71.23
2018-09-28T11:36:08.221Z,70.83
2018-09-28T11:37:08.382Z,72.04
2018-09-28T11:38:08.212Z,71.77
2018-09-28T11:39:08.231Z,72.08
2018-09-28T11:40:08.163Z,72.62
2018-09-28T11:41:08.876Z,72.96
2018-09-28T11:42:08.165Z,73.77
2018-09-28T11:43:08.220Z,74.68
2018-09-28T11:44:08.147Z,74.48
2018-09-28T11:45:08.121Z,74.52
2018-09-28T11:46:17.612Z,75.87
2018-09-28T11:47:08.423Z,77.13
2018-09-28T11:48:11.461Z,77.47
2018-09-28T11:49:17.680Z,77.87
2018-09-28T11:50:08.190Z,78.89
2018-09-28T11:51:17.662Z,79.24
2018-09-28T11:52:20.251Z,79.24
2018-09-28T11:53:08.197Z,79.75
2018-09-28T11:54:16.729Z,80.50
2018-09-28T11:55:08.162Z,80.50
2018-09-28T11:56:37.768Z,80.70
2018-09-28T11:57:08.135Z,81.11
2018-09-28T11:58:09.027Z,81.41
2018-09-28T11:59:07.979Z,81.58
2018-09-28T12:00:07.994Z,81.01
2018-09-28T12:01:07.939Z,82.31
2018-09-28T12:02:17.416Z,82.92
2018-09-28T12:03:08.168Z,83.02
2018-09-28T12:04:17.472Z,83.53
2018-09-28T12:05:08.120Z,83.73
2018-09-28T12:06:18.816Z,83.23
2018-09-28T12:07:17.460Z,83.23
2018-09-28T12:08:17.834Z,82.92
2018-09-28T12:09:08.070Z,83.47
2018-09-28T12:10:07.941Z,83.98
2018-09-28T12:11:08.183Z,83.63
2018-09-28T12:12:07.919Z,83.57
2018-09-28T12:13:07.804Z,84.49
2018-09-28T12:14:17.435Z,83.87
2018-09-28T12:15:17.422Z,84.94
2018-09-28T12:16:16.535Z,84.49
2018-09-28T12:17:07.931Z,84.42
2018-09-28T12:18:08.069Z,85.45
2018-09-28T12:19:07.866Z,85.65
2018-09-28T12:20:07.985Z,84.83
2018-09-28T12:22:31.147Z,85.75
2018-09-28T12:24:43.301Z,85.65
2018-09-28T12:26:54.410Z,85.45
2018-09-28T12:27:54.500Z,85.79
2018-09-28T12:28:54.468Z,85.79
2018-09-28T12:30:04.861Z,86.82
2018-09-28T12:30:54.380Z,87.73
2018-09-28T12:31:54.235Z,86.61
2018-09-28T12:33:03.761Z,87.32
2018-09-28T12:33:55.103Z,87.43
2018-09-28T12:34:54.106Z,87.37
2018-09-28T12:36:05.395Z,86.96
2018-09-28T12:37:02.761Z,87.77
2018-09-28T12:37:54.272Z,87.37
2018-09-28T12:39:03.707Z,88.04
2018-09-28T12:39:54.348Z,87.94
2018-09-28T12:40:54.536Z,88.29
2018-09-28T12:42:03.968Z,87.94
2018-09-28T12:43:04.825Z,88.76
2018-09-28T12:43:54.239Z,88.65
2018-09-28T12:44:54.186Z,88.55
2018-09-28T12:46:05.220Z,89.06
2018-09-28T12:46:54.167Z,88.04
2018-09-28T12:47:54.048Z,87.94
2018-09-28T12:48:54.077Z,88.45
2018-09-28T12:50:03.412Z,88.76
2018-09-28T12:51:02.726Z,89.06
2018-09-28T12:51:54.095Z,88.04
2018-09-28T12:52:54.033Z,88.55
2018-09-28T12:55:05.336Z,87.90
2018-09-28T12:56:35.688Z,89.02
2018-09-28T12:57:05.387Z,87.90
2018-09-28T12:58:05.169Z,87.59
2018-09-28T12:59:06.071Z,88.14
2018-09-28T13:00:17.341Z,88.24
2018-09-28T13:01:14.729Z,87.23
2018-09-28T13:02:13.967Z,88.14
2018-09-28T13:03:17.452Z,88.79
2018-09-28T13:04:05.131Z,89.67
2018-09-28T13:05:13.696Z,89.58
2018-09-28T13:06:14.599Z,89.47
2018-09-28T13:07:05.116Z,89.58
2018-09-28T13:08:05.160Z,88.65
2018-09-28T13:09:14.634Z,89.88
2018-09-28T13:10:05.061Z,88.65
2018-09-28T13:11:04.977Z,88.65
2018-09-28T13:12:05.014Z,89.58
2018-09-28T13:13:05.539Z,89.88
2018-09-28T13:14:04.888Z,88.85
2018-09-28T13:15:05.051Z,88.14
2018-09-28T13:16:04.858Z,89.06
2018-09-28T13:17:04.845Z,89.26
2018-09-28T13:18:06.051Z,89.17
2018-09-28T13:19:04.911Z,89.02
2018-09-28T13:20:04.844Z,89.67
2018-09-28T13:21:04.839Z,88.65
2018-09-28T13:22:04.777Z,89.06
2018-09-28T13:23:04.793Z,88.96
2018-09-28T13:24:04.791Z,88.31
2018-09-28T13:25:04.746Z,87.02
2018-09-28T13:26:04.775Z,87.84
2018-09-28T13:27:04.728Z,88.85
2018-09-28T13:28:04.732Z,88.65
2018-09-28T13:29:04.737Z,89.06
2018-09-28T13:30:04.701Z,89.26
2018-09-28T13:31:04.721Z,88.96
2018-09-28T13:32:04.670Z,87.94
2018-09-28T13:33:04.741Z,89.20
2018-09-28T13:34:04.646Z,89.20
2018-09-28T13:35:04.701Z,89.04
2018-09-28T13:36:04.637Z,88.43
2018-09-28T13:37:04.653Z,89.15
2018-09-28T13:38:04.666Z,88.12
2018-09-28T13:39:04.676Z,88.12
2018-09-28T13:40:17.776Z,88.88
2018-09-28T13:41:04.696Z,89.15
2018-09-28T13:42:04.612Z,88.98
2018-09-28T13:43:15.324Z,88.98
2018-09-28T13:44:15.252Z,87.76
2018-09-28T13:45:04.648Z,88.10
2018-09-28T13:46:04.626Z,88.20
2018-09-28T13:47:04.550Z,89.37
2018-09-28T13:48:04.521Z,89.06
2018-09-28T13:49:15.402Z,89.17
2018-09-28T13:50:04.500Z,88.96
2018-09-28T13:51:14.447Z,90.19
2018-09-28T13:52:14.272Z,90.60
2018-09-28T13:53:04.533Z,90.45
2018-09-28T13:54:04.488Z,90.66
2018-09-28T13:55:14.497Z,89.89
2018-09-28T13:56:16.590Z,90.19
2018-09-28T13:58:27.514Z,88.92
2018-09-28T13:59:27.392Z,89.23
2018-09-28T14:00:27.413Z,87.49
2018-09-28T14:01:36.852Z,89.23
2018-09-28T14:02:36.865Z,89.23
2018-09-28T14:03:35.951Z,88.20
2018-09-28T14:04:27.398Z,87.73
2018-09-28T14:05:35.928Z,88.20
2018-09-28T14:07:40.635Z,89.03
2018-09-28T14:09:52.963Z,87.49
2018-09-28T14:10:52.974Z,88.04
2018-09-28T14:11:52.889Z,87.73
2018-09-28T14:12:52.849Z,88.20
2018-09-28T14:13:53.456Z,88.00
2018-09-28T14:15:01.462Z,88.14
2018-09-28T14:15:52.835Z,88.04
2018-09-28T14:17:03.632Z,88.24